ROMMA est une association bénévole à but non lucratif. Votre soutien est indispensable : ADHERER à ROMMA ou FAIRE un DON

Chindrieux - (73, Savoie)

Chautagne (260 m)   Longitude: 05°50' E   Latitude: 45°49' N Station partenaire n°74
 

Détail journalier du     <<     >>

Température Precipitation Humidité Pression Vent Dir Rafale Dir. rafale Ensol.
Heure (°C) (mm) (%) (hPa) (km/h) (km/h) (min)
01:00 8.506310152N10N0
02:00 7.0068101603N0
03:00 5.807410163N8N0
04:00 5.907210163NE6NE0
05:00 5.207510163NE8NE0
06:00 4.307810162NE6NE0
07:00 4.107910163NE8NE0
08:00 3.908010173NE10N0
09:00 4.008110175NNO10NNO0
10:00 5.207910174NNO8NNO0
11:00 6.607510173NNO10NNO10
12:00 9.906610163NE11NNE60
13:00 11.206010165N15SO60
14:00 12.305510168S23SO60
15:00 13.005210169SSO21SO60
16:00 13.3054101511SSE24SE60
17:00 13.305010159SSE21SSO60
18:00 12.305210159S18SO50
19:00 12.204910157S19SSO60
20:00 10.805210158SO23SO50
21:00 9.305510163SSO13ONO0
22:00 7.405910161SSO10NO0
23:00 6.8063101603ONO0
minuit 5.106710161ONO3ONO0

Graphique du 13-04-2019

 

Serveur OMMA